createdAt,value
2023-05-24T00:00:00.256Z,6.53
2023-05-24T00:03:04.822Z,6.80
2023-05-24T00:06:08.423Z,6.67
2023-05-24T00:09:13.577Z,6.00
2023-05-24T00:12:17.047Z,7.90
2023-05-24T00:15:20.316Z,5.37
2023-05-24T00:18:23.694Z,6.20
2023-05-24T00:21:26.892Z,6.37
2023-05-24T00:24:31.452Z,6.10
2023-05-24T00:27:34.628Z,6.20
2023-05-24T00:30:37.922Z,5.80
2023-05-24T00:33:41.281Z,6.03
2023-05-24T00:36:44.464Z,5.53
2023-05-24T00:39:49.087Z,6.33
2023-05-24T00:42:52.339Z,6.37
2023-05-24T00:46:17.551Z,7.07
2023-05-24T00:49:21.338Z,6.50
2023-05-24T00:52:24.663Z,6.27
2023-05-24T00:55:30.600Z,5.80
2023-05-24T00:58:33.923Z,5.23
2023-05-24T01:01:37.545Z,5.80
2023-05-24T01:04:40.865Z,7.30
2023-05-24T01:07:52.693Z,6.20
2023-05-24T01:11:02.817Z,8.23
2023-05-24T01:14:18.829Z,7.77
2023-05-24T01:17:26.751Z,7.53
2023-05-24T01:20:31.807Z,6.50
2023-05-24T01:23:45.399Z,7.83
2023-05-24T01:27:11.167Z,6.77
2023-05-24T01:30:15.788Z,6.53
2023-05-24T01:33:18.925Z,7.07
2023-05-24T01:36:22.291Z,7.33
2023-05-24T01:39:29.134Z,5.67
2023-05-24T01:42:45.891Z,6.50
2023-05-24T01:45:59.403Z,7.23
2023-05-24T01:49:12.286Z,6.20
2023-05-24T01:52:20.887Z,6.17
2023-05-24T01:55:24.357Z,5.47
2023-05-24T01:58:31.201Z,5.67
2023-05-24T02:01:36.000Z,7.47
2023-05-24T02:04:39.547Z,16.53
2023-05-24T02:07:42.708Z,17.70
2023-05-24T02:10:45.962Z,12.57
2023-05-24T02:13:50.566Z,10.43
2023-05-24T02:16:59.394Z,6.20
2023-05-24T02:20:03.156Z,6.50
2023-05-24T02:23:06.528Z,6.03
2023-05-24T02:26:11.647Z,6.13
2023-05-24T02:29:16.727Z,6.23
2023-05-24T02:32:19.954Z,6.50
2023-05-24T02:35:23.500Z,7.40
2023-05-24T02:38:26.675Z,8.67
2023-05-24T02:41:29.736Z,6.40
2023-05-24T02:44:34.328Z,5.93
2023-05-24T02:47:37.483Z,6.27
2023-05-24T02:50:41.009Z,6.83
2023-05-24T02:53:45.521Z,7.57
2023-05-24T02:56:49.488Z,6.17
2023-05-24T02:59:54.355Z,6.50
2023-05-24T03:03:00.988Z,10.60
2023-05-24T03:06:04.298Z,12.83
2023-05-24T03:09:07.554Z,7.13
2023-05-24T03:12:11.546Z,12.03
2023-05-24T03:15:16.123Z,15.03
2023-05-24T03:18:19.260Z,6.37
2023-05-24T03:21:23.612Z,27.90
2023-05-24T03:24:27.652Z,18.60
2023-05-24T03:27:30.801Z,12.90
2023-05-24T03:30:35.827Z,8.20
2023-05-24T03:33:39.083Z,30.00
2023-05-24T03:36:42.188Z,16.20
2023-05-24T03:39:45.313Z,12.57
2023-05-24T03:42:48.362Z,10.80
2023-05-24T03:45:53.007Z,9.47
2023-05-24T03:48:56.140Z,8.27
2023-05-24T03:51:59.268Z,7.50
2023-05-24T03:55:02.387Z,12.27
2023-05-24T03:58:05.631Z,8.83
2023-05-24T04:01:12.630Z,11.27
2023-05-24T04:04:19.501Z,15.03
2023-05-24T04:07:24.608Z,17.87
2023-05-24T04:10:27.790Z,22.30
2023-05-24T04:13:30.866Z,12.87
2023-05-24T04:16:35.362Z,46.10
2023-05-24T04:19:38.464Z,19.93
2023-05-24T04:22:42.225Z,13.07
2023-05-24T04:25:45.401Z,26.87
2023-05-24T04:28:48.769Z,26.23
2023-05-24T04:31:53.617Z,29.70
2023-05-24T04:34:57.722Z,31.10
2023-05-24T04:38:00.955Z,26.73
2023-05-24T04:41:04.177Z,16.80
2023-05-24T04:44:07.703Z,24.50
2023-05-24T04:47:13.013Z,39.30
2023-05-24T04:50:16.159Z,15.60
2023-05-24T04:53:19.530Z,16.50
2023-05-24T04:56:23.019Z,24.07
2023-05-24T04:59:26.365Z,15.30
2023-05-24T05:02:31.299Z,10.90
2023-05-24T05:05:35.021Z,13.33
2023-05-24T05:08:38.122Z,11.63
2023-05-24T05:11:42.398Z,21.33
2023-05-24T05:14:45.804Z,34.60
2023-05-24T05:17:50.943Z,44.87
2023-05-24T05:20:54.147Z,41.93
2023-05-24T05:23:57.368Z,36.87
2023-05-24T05:27:00.925Z,31.17
2023-05-24T05:30:04.146Z,45.47
2023-05-24T05:33:08.758Z,40.23
2023-05-24T05:36:11.925Z,36.77
2023-05-24T05:39:15.072Z,32.77
2023-05-24T05:42:18.301Z,28.50
2023-05-24T05:45:21.797Z,34.13
2023-05-24T05:48:27.178Z,37.27
2023-05-24T05:51:30.607Z,25.60
2023-05-24T05:54:33.731Z,31.00
2023-05-24T05:57:36.860Z,35.93
2023-05-24T06:00:40.283Z,24.03
2023-05-24T06:03:44.940Z,24.80
2023-05-24T06:06:50.058Z,30.93
2023-05-24T06:09:53.271Z,21.53
2023-05-24T06:12:56.500Z,35.73
2023-05-24T06:16:00.342Z,23.60
2023-05-24T06:19:06.562Z,18.60
2023-05-24T06:22:09.956Z,20.60
2023-05-24T06:25:15.588Z,28.90
2023-05-24T06:28:18.668Z,19.63
2023-05-24T06:31:22.221Z,15.33
2023-05-24T06:34:27.608Z,19.73
2023-05-24T06:37:31.546Z,19.33
2023-05-24T06:40:34.673Z,17.37
2023-05-24T06:43:37.799Z,19.20
2023-05-24T06:46:41.272Z,18.90
2023-05-24T06:49:46.077Z,19.03
2023-05-24T06:52:49.181Z,18.63
2023-05-24T06:55:52.384Z,19.13
2023-05-24T06:58:55.524Z,18.93
2023-05-24T07:02:00.647Z,24.77
2023-05-24T07:05:12.393Z,23.90
2023-05-24T07:08:15.776Z,25.50
2023-05-24T07:11:19.022Z,26.07
2023-05-24T07:14:23.325Z,20.33
2023-05-24T07:17:27.440Z,22.13
2023-05-24T07:20:32.089Z,28.10
2023-05-24T07:23:35.553Z,25.17
2023-05-24T07:26:38.641Z,17.03
2023-05-24T07:29:41.816Z,24.57
2023-05-24T07:32:44.964Z,21.73
2023-05-24T07:35:51.778Z,23.60
2023-05-24T07:38:55.586Z,19.30
2023-05-24T07:41:58.861Z,36.37
2023-05-24T07:45:02.880Z,29.40
2023-05-24T07:48:06.211Z,19.87
2023-05-24T07:51:10.700Z,22.60
2023-05-24T07:54:13.799Z,24.90
2023-05-24T07:57:16.902Z,20.33
2023-05-24T08:00:21.111Z,31.00
2023-05-24T08:03:26.136Z,27.63
2023-05-24T08:06:30.869Z,37.70
2023-05-24T08:09:36.005Z,29.50
2023-05-24T08:12:39.160Z,29.37
2023-05-24T08:15:42.767Z,38.70
2023-05-24T08:18:46.203Z,25.13
2023-05-24T08:21:50.764Z,29.90
2023-05-24T08:24:53.871Z,24.73
2023-05-24T08:27:57.465Z,21.90
2023-05-24T08:31:00.715Z,22.23
2023-05-24T08:34:03.859Z,28.80
2023-05-24T08:37:09.624Z,23.07
2023-05-24T08:40:13.285Z,18.90
2023-05-24T08:43:16.564Z,17.20
2023-05-24T08:46:20.378Z,17.83
2023-05-24T08:49:24.102Z,18.00
2023-05-24T08:52:29.865Z,18.00
2023-05-24T08:55:33.578Z,16.13
2023-05-24T08:58:37.374Z,15.63
2023-05-24T09:01:42.510Z,22.33
2023-05-24T09:04:47.759Z,12.20
2023-05-24T09:07:52.643Z,15.43
2023-05-24T09:10:57.361Z,20.70
2023-05-24T09:14:02.005Z,59.27
2023-05-24T09:17:05.584Z,32.20
2023-05-24T09:20:11.263Z,36.13
2023-05-24T09:23:16.934Z,43.43
2023-05-24T09:26:20.282Z,86.93
2023-05-24T09:29:24.885Z,87.90
2023-05-24T09:32:28.797Z,110.67
2023-05-24T09:35:32.216Z,105.20
2023-05-24T09:38:37.321Z,119.03
2023-05-24T09:41:40.869Z,95.30
2023-05-24T09:44:44.521Z,74.47
2023-05-24T09:47:48.339Z,76.10
2023-05-24T09:51:01.340Z,74.37
2023-05-24T09:54:08.300Z,65.97
2023-05-24T09:57:11.577Z,54.70
2023-05-24T10:00:16.235Z,46.43
2023-05-24T10:03:19.567Z,35.43
2023-05-24T10:06:24.066Z,22.00
2023-05-24T10:09:33.871Z,9.73
2023-05-24T10:12:42.935Z,14.70
2023-05-24T10:15:46.405Z,17.37
2023-05-24T10:18:51.015Z,8.57
2023-05-24T10:21:54.993Z,12.83
2023-05-24T10:25:01.268Z,19.30
2023-05-24T10:28:08.437Z,21.33
2023-05-24T10:31:15.183Z,20.20
2023-05-24T10:34:18.793Z,16.23
2023-05-24T10:37:22.323Z,13.90
2023-05-24T10:40:27.443Z,33.10
2023-05-24T10:43:31.126Z,22.83
2023-05-24T10:46:34.366Z,23.17
2023-05-24T10:49:38.920Z,18.60
2023-05-24T10:52:42.015Z,12.57
2023-05-24T10:55:59.784Z,17.73
2023-05-24T10:59:06.343Z,15.53
2023-05-24T11:02:14.046Z,8.50
2023-05-24T11:05:17.925Z,11.20
2023-05-24T11:08:31.871Z,12.17
2023-05-24T11:11:39.512Z,12.30
2023-05-24T11:14:42.721Z,12.27
2023-05-24T11:18:15.593Z,17.47
2023-05-24T11:21:18.856Z,18.53
2023-05-24T11:24:23.584Z,64.40
2023-05-24T11:27:28.244Z,32.87
2023-05-24T11:30:32.916Z,44.60
2023-05-24T11:33:36.038Z,44.73
2023-05-24T11:36:39.862Z,52.27
2023-05-24T11:39:43.329Z,48.07
2023-05-24T11:42:48.084Z,47.03
2023-05-24T11:45:52.982Z,38.67
2023-05-24T11:48:58.458Z,38.23
2023-05-24T11:52:02.835Z,37.23
2023-05-24T11:55:07.231Z,48.43
2023-05-24T11:58:20.631Z,14.90
2023-05-24T12:01:25.856Z,13.13
2023-05-24T12:04:29.884Z,15.30
2023-05-24T12:07:33.198Z,5.60
2023-05-24T12:10:36.815Z,28.80
2023-05-24T12:13:41.710Z,60.23
2023-05-24T12:16:46.200Z,44.93
2023-05-24T12:19:51.146Z,23.33
2023-05-24T12:22:54.864Z,15.93
2023-05-24T12:26:01.358Z,16.80
2023-05-24T12:29:07.039Z,17.10
2023-05-24T12:32:14.256Z,49.90
2023-05-24T12:35:19.732Z,19.73
2023-05-24T12:38:25.686Z,27.50
2023-05-24T12:41:33.024Z,32.83
2023-05-24T12:44:39.800Z,18.43
2023-05-24T12:47:43.282Z,21.30
2023-05-24T12:50:46.542Z,31.20
2023-05-24T12:53:49.601Z,28.97
2023-05-24T12:56:55.873Z,25.53
2023-05-24T13:00:01.275Z,26.67
2023-05-24T13:03:04.383Z,24.00
2023-05-24T13:06:08.487Z,20.57
2023-05-24T13:09:12.124Z,20.77
2023-05-24T13:12:15.207Z,19.57
2023-05-24T13:15:23.298Z,17.57
2023-05-24T13:18:27.353Z,15.87
2023-05-24T13:21:30.563Z,16.33
2023-05-24T13:24:33.714Z,16.17
2023-05-24T13:27:37.088Z,11.87
2023-05-24T13:30:41.827Z,11.80
2023-05-24T13:33:45.225Z,10.80
2023-05-24T13:36:48.376Z,10.97
2023-05-24T13:39:51.989Z,19.87
2023-05-24T13:42:57.779Z,9.90
2023-05-24T13:46:02.358Z,14.97
2023-05-24T13:49:05.608Z,7.33
2023-05-24T13:52:08.730Z,15.20
2023-05-24T13:55:13.249Z,17.30
2023-05-24T13:58:16.658Z,24.73
2023-05-24T14:01:21.377Z,22.20
2023-05-24T14:04:24.552Z,22.20
2023-05-24T14:07:27.722Z,28.83
2023-05-24T14:10:30.950Z,25.90
2023-05-24T14:16:41.650Z,29.70
2023-05-24T14:19:44.903Z,28.63
2023-05-24T14:22:48.233Z,21.60
2023-05-24T14:25:52.189Z,23.87
2023-05-24T14:28:56.973Z,28.23
2023-05-24T14:32:02.002Z,28.03
2023-05-24T14:35:06.113Z,30.80
2023-05-24T14:38:10.761Z,24.50
2023-05-24T14:41:13.906Z,22.20
2023-05-24T14:44:18.022Z,22.20
2023-05-24T14:47:24.985Z,18.23
2023-05-24T14:50:28.254Z,20.30
2023-05-24T14:53:31.384Z,33.03
2023-05-24T14:56:34.760Z,22.97
2023-05-24T14:59:37.973Z,22.87
2023-05-24T15:02:42.677Z,36.43
2023-05-24T15:05:46.508Z,68.17
2023-05-24T15:08:49.730Z,91.37
2023-05-24T15:11:53.228Z,105.33
2023-05-24T15:14:56.739Z,84.40
2023-05-24T15:18:01.388Z,71.30
2023-05-24T15:21:04.761Z,62.20
2023-05-24T15:24:08.634Z,59.87
2023-05-24T15:27:11.908Z,68.20
2023-05-24T15:30:17.530Z,52.73
2023-05-24T15:33:22.314Z,57.20
2023-05-24T15:36:25.529Z,45.53
2023-05-24T15:39:28.740Z,56.63
2023-05-24T15:42:33.378Z,41.23
2023-05-24T15:45:36.549Z,35.13
2023-05-24T15:48:41.071Z,33.37
2023-05-24T15:52:01.916Z,45.53
2023-05-24T15:55:07.803Z,44.63
2023-05-24T15:58:13.483Z,50.70
2023-05-24T16:01:16.707Z,39.60
2023-05-24T16:04:21.311Z,32.40
2023-05-24T16:07:24.708Z,54.70
2023-05-24T16:10:27.913Z,38.17
2023-05-24T16:13:31.132Z,31.47
2023-05-24T16:16:34.432Z,31.17
2023-05-24T16:19:39.006Z,44.03
2023-05-24T16:22:48.879Z,23.60
2023-05-24T16:25:52.260Z,31.87
2023-05-24T16:28:55.396Z,28.27
2023-05-24T16:31:58.500Z,18.70
2023-05-24T16:35:03.051Z,28.70
2023-05-24T16:38:06.286Z,29.20
2023-05-24T16:41:09.541Z,29.80
2023-05-24T16:44:17.665Z,22.23
2023-05-24T16:47:21.317Z,27.13
2023-05-24T16:50:26.005Z,31.40
2023-05-24T16:53:29.274Z,24.70
2023-05-24T16:56:32.386Z,29.00
2023-05-24T16:59:35.839Z,28.13
2023-05-24T17:02:39.112Z,29.80
2023-05-24T17:05:45.152Z,28.27
2023-05-24T17:08:48.322Z,43.83
2023-05-24T17:11:51.716Z,28.60
2023-05-24T17:14:55.307Z,39.77
2023-05-24T17:17:58.619Z,27.77
2023-05-24T17:21:05.298Z,31.17
2023-05-24T17:24:08.495Z,28.40
2023-05-24T17:27:11.536Z,19.10
2023-05-24T17:30:15.046Z,25.23
2023-05-24T17:33:18.086Z,31.80
2023-05-24T17:36:22.700Z,26.27
2023-05-24T17:39:25.791Z,16.13
2023-05-24T17:42:28.890Z,25.97
2023-05-24T17:45:32.021Z,17.47
2023-05-24T17:48:37.424Z,16.33
2023-05-24T17:51:41.897Z,17.57
2023-05-24T17:54:45.099Z,10.93
2023-05-24T17:57:48.271Z,12.33
2023-05-24T18:00:51.485Z,11.90
2023-05-24T18:03:54.731Z,11.77
2023-05-24T18:06:59.166Z,11.13
2023-05-24T18:10:02.338Z,13.50
2023-05-24T18:13:08.497Z,13.90
2023-05-24T18:16:12.730Z,12.53
2023-05-24T18:19:15.894Z,15.50
2023-05-24T18:22:21.221Z,15.93
2023-05-24T18:25:24.329Z,17.53
2023-05-24T18:28:27.380Z,41.57
2023-05-24T18:31:30.698Z,55.53
2023-05-24T18:34:33.748Z,39.13
2023-05-24T18:37:38.154Z,31.63
2023-05-24T18:40:41.284Z,22.33
2023-05-24T18:43:44.485Z,23.90
2023-05-24T18:46:47.666Z,25.43
2023-05-24T18:49:50.739Z,20.00
2023-05-24T18:52:55.240Z,21.73
2023-05-24T18:55:58.314Z,21.07
2023-05-24T18:59:01.421Z,16.47
2023-05-24T19:02:04.789Z,19.80
2023-05-24T19:05:08.640Z,17.93
2023-05-24T19:08:13.200Z,13.97
2023-05-24T19:11:16.311Z,15.40
2023-05-24T19:14:22.113Z,10.90
2023-05-24T19:17:26.187Z,13.60
2023-05-24T19:20:29.318Z,9.20
2023-05-24T19:23:33.872Z,9.77
2023-05-24T19:26:36.964Z,9.00
2023-05-24T19:29:40.217Z,8.50
2023-05-24T19:32:43.391Z,10.33
2023-05-24T19:35:46.554Z,11.60
2023-05-24T19:38:51.235Z,18.23
2023-05-24T19:41:54.361Z,24.50
2023-05-24T19:44:57.627Z,20.37
2023-05-24T19:48:06.004Z,15.53
2023-05-24T19:51:09.439Z,19.50
2023-05-24T19:54:14.857Z,13.90
2023-05-24T19:57:18.105Z,9.10
2023-05-24T20:00:21.377Z,9.20
2023-05-24T20:03:25.023Z,8.27
2023-05-24T20:06:28.201Z,10.57
2023-05-24T20:09:33.258Z,7.00
2023-05-24T20:12:36.675Z,10.03
2023-05-24T20:15:39.919Z,8.93
2023-05-24T20:18:42.977Z,7.17
2023-05-24T20:21:46.115Z,5.73
2023-05-24T20:24:51.187Z,6.07
2023-05-24T20:27:54.525Z,5.80
2023-05-24T20:30:57.685Z,5.67
2023-05-24T20:34:00.793Z,6.60
2023-05-24T20:37:04.230Z,5.40
2023-05-24T20:40:10.122Z,7.67
2023-05-24T20:43:13.377Z,6.03
2023-05-24T20:46:16.645Z,6.40
2023-05-24T20:49:19.890Z,5.90
2023-05-24T20:52:23.094Z,6.20
2023-05-24T20:55:27.598Z,5.37
2023-05-24T20:58:31.508Z,7.53
2023-05-24T21:01:34.706Z,6.93
2023-05-24T21:04:37.867Z,5.30
2023-05-24T21:07:41.322Z,5.57
2023-05-24T21:10:46.275Z,6.70
2023-05-24T21:13:49.449Z,6.17
2023-05-24T21:16:52.625Z,5.33
2023-05-24T21:19:55.939Z,5.50
2023-05-24T21:22:59.227Z,6.17
2023-05-24T21:26:03.834Z,5.60
2023-05-24T21:29:07.353Z,4.77
2023-05-24T21:32:10.608Z,4.90
2023-05-24T21:35:13.924Z,5.30
2023-05-24T21:38:17.171Z,5.33
2023-05-24T21:41:22.485Z,5.27
2023-05-24T21:44:25.789Z,4.77
2023-05-24T21:47:29.028Z,4.53
2023-05-24T21:50:32.329Z,5.13
2023-05-24T21:53:35.847Z,5.20
2023-05-24T21:56:40.423Z,4.60
2023-05-24T21:59:43.652Z,5.00
2023-05-24T22:02:47.118Z,4.40
2023-05-24T22:05:50.309Z,4.90
2023-05-24T22:08:53.508Z,4.83
2023-05-24T22:11:58.274Z,4.70
2023-05-24T22:15:02.191Z,4.90
2023-05-24T22:18:06.109Z,5.20
2023-05-24T22:21:09.960Z,4.87
2023-05-24T22:24:13.805Z,6.33
2023-05-24T22:27:18.283Z,4.87
2023-05-24T22:30:22.200Z,5.47
2023-05-24T22:33:25.840Z,4.73
2023-05-24T22:36:29.864Z,4.90
2023-05-24T22:39:36.413Z,4.90
2023-05-24T22:42:41.289Z,5.10
2023-05-24T22:45:47.748Z,5.07
2023-05-24T22:48:53.883Z,5.67
2023-05-24T22:51:57.445Z,5.00
2023-05-24T22:55:00.942Z,5.90
2023-05-24T22:58:05.989Z,5.10
2023-05-24T23:01:09.778Z,5.70
2023-05-24T23:07:21.741Z,5.27
2023-05-24T23:10:24.876Z,5.40
2023-05-24T23:13:33.908Z,4.97
2023-05-24T23:16:45.264Z,4.90
2023-05-24T23:19:50.405Z,11.83
2023-05-24T23:22:53.760Z,9.83
2023-05-24T23:25:57.242Z,4.70
2023-05-24T23:29:01.816Z,5.03
2023-05-24T23:32:05.616Z,4.93
2023-05-24T23:35:09.446Z,5.00
2023-05-24T23:38:12.571Z,5.80
2023-05-24T23:41:15.791Z,6.17
2023-05-24T23:44:23.753Z,4.70
2023-05-24T23:47:27.170Z,5.37
2023-05-24T23:50:35.036Z,5.20
2023-05-24T23:53:43.246Z,9.37
2023-05-24T23:56:46.525Z,5.40
2023-05-24T23:59:51.088Z,5.80
